sensor_id;sensor_type;location;lat;lon;timestamp;temperature;humidity
40960;DHT22;27842;52.272;8.052;2022-10-31T00:01:14;15.90;99.90
40960;DHT22;27842;52.272;8.052;2022-10-31T00:03:39;15.90;99.90
40960;DHT22;27842;52.272;8.052;2022-10-31T00:06:05;15.90;99.90
40960;DHT22;27842;52.272;8.052;2022-10-31T00:08:31;15.90;99.90
40960;DHT22;27842;52.272;8.052;2022-10-31T00:10:56;15.80;99.90
40960;DHT22;27842;52.272;8.052;2022-10-31T00:13:22;15.80;99.90
40960;DHT22;27842;52.272;8.052;2022-10-31T00:15:47;15.80;99.90
40960;DHT22;27842;52.272;8.052;2022-10-31T00:18:13;15.80;99.90
40960;DHT22;27842;52.272;8.052;2022-10-31T00:20:39;15.80;99.90
40960;DHT22;27842;52.272;8.052;2022-10-31T00:23:05;15.80;99.90
40960;DHT22;27842;52.272;8.052;2022-10-31T00:25:37;15.70;99.90
40960;DHT22;27842;52.272;8.052;2022-10-31T00:28:04;15.70;99.90
40960;DHT22;27842;52.272;8.052;2022-10-31T00:30:30;15.80;99.90
40960;DHT22;27842;52.272;8.052;2022-10-31T00:32:55;15.80;99.90
40960;DHT22;27842;52.272;8.052;2022-10-31T00:35:21;15.70;99.90
40960;DHT22;27842;52.272;8.052;2022-10-31T00:37:47;15.70;99.90
40960;DHT22;27842;52.272;8.052;2022-10-31T00:40:12;15.70;99.90
40960;DHT22;27842;52.272;8.052;2022-10-31T00:42:39;15.70;99.90
40960;DHT22;27842;52.272;8.052;2022-10-31T00:45:10;15.70;99.90
40960;DHT22;27842;52.272;8.052;2022-10-31T00:47:36;15.70;99.90
40960;DHT22;27842;52.272;8.052;2022-10-31T00:50:05;15.60;99.90
40960;DHT22;27842;52.272;8.052;2022-10-31T00:52:32;15.60;99.90
40960;DHT22;27842;52.272;8.052;2022-10-31T00:54:57;15.60;99.90
40960;DHT22;27842;52.272;8.052;2022-10-31T00:57:23;15.60;99.90
40960;DHT22;27842;52.272;8.052;2022-10-31T00:59:49;15.60;99.90
40960;DHT22;27842;52.272;8.052;2022-10-31T01:02:14;15.50;99.90
40960;DHT22;27842;52.272;8.052;2022-10-31T01:04:40;15.50;99.90
40960;DHT22;27842;52.272;8.052;2022-10-31T01:07:05;15.50;99.90
40960;DHT22;27842;52.272;8.052;2022-10-31T01:09:31;15.50;99.90
40960;DHT22;27842;52.272;8.052;2022-10-31T01:11:56;15.50;99.90
40960;DHT22;27842;52.272;8.052;2022-10-31T01:14:22;15.50;99.90
40960;DHT22;27842;52.272;8.052;2022-10-31T01:16:48;15.50;99.90
40960;DHT22;27842;52.272;8.052;2022-10-31T01:19:13;15.50;99.90
40960;DHT22;27842;52.272;8.052;2022-10-31T01:21:39;15.50;99.90
40960;DHT22;27842;52.272;8.052;2022-10-31T01:24:04;15.40;99.90
40960;DHT22;27842;52.272;8.052;2022-10-31T01:26:32;15.40;99.90
40960;DHT22;27842;52.272;8.052;2022-10-31T01:29:00;15.40;99.90
40960;DHT22;27842;52.272;8.052;2022-10-31T01:31:31;15.40;99.90
40960;DHT22;27842;52.272;8.052;2022-10-31T01:33:57;15.40;99.90
40960;DHT22;27842;52.272;8.052;2022-10-31T01:36:32;15.40;99.90
40960;DHT22;27842;52.272;8.052;2022-10-31T01:39:04;15.30;99.90
40960;DHT22;27842;52.272;8.052;2022-10-31T01:41:32;15.30;99.90
40960;DHT22;27842;52.272;8.052;2022-10-31T01:44:00;15.40;99.90
40960;DHT22;27842;52.272;8.052;2022-10-31T01:52:42;15.30;99.90
40960;DHT22;27842;52.272;8.052;2022-10-31T01:55:13;15.20;99.90
40960;DHT22;27842;52.272;8.052;2022-10-31T01:57:43;15.30;99.90
40960;DHT22;27842;52.272;8.052;2022-10-31T02:00:10;15.30;99.90
40960;DHT22;27842;52.272;8.052;2022-10-31T02:02:36;15.20;99.90
40960;DHT22;27842;52.272;8.052;2022-10-31T02:05:05;15.20;99.90
40960;DHT22;27842;52.272;8.052;2022-10-31T02:07:51;15.20;99.90
40960;DHT22;27842;52.272;8.052;2022-10-31T02:10:21;15.20;99.90
40960;DHT22;27842;52.272;8.052;2022-10-31T02:12:50;15.20;99.90
40960;DHT22;27842;52.272;8.052;2022-10-31T02:15:16;15.20;99.90
40960;DHT22;27842;52.272;8.052;2022-10-31T02:17:42;15.20;99.90
40960;DHT22;27842;52.272;8.052;2022-10-31T02:20:23;15.20;99.90
40960;DHT22;27842;52.272;8.052;2022-10-31T02:25:51;15.10;99.90
40960;DHT22;27842;52.272;8.052;2022-10-31T02:34:01;15.10;99.90
40960;DHT22;27842;52.272;8.052;2022-10-31T02:39:24;15.00;99.90
40960;DHT22;27842;52.272;8.052;2022-10-31T02:44:38;15.00;99.90
40960;DHT22;27842;52.272;8.052;2022-10-31T02:47:21;15.00;99.90
40960;DHT22;27842;52.272;8.052;2022-10-31T02:50:01;15.00;99.90
40960;DHT22;27842;52.272;8.052;2022-10-31T02:52:30;15.00;99.90
40960;DHT22;27842;52.272;8.052;2022-10-31T02:54:57;14.90;99.90
40960;DHT22;27842;52.272;8.052;2022-10-31T02:57:29;14.90;99.90
40960;DHT22;27842;52.272;8.052;2022-10-31T03:00:03;14.90;99.90
40960;DHT22;27842;52.272;8.052;2022-10-31T03:08:38;14.90;99.90
40960;DHT22;27842;52.272;8.052;2022-10-31T03:11:07;14.90;99.90
40960;DHT22;27842;52.272;8.052;2022-10-31T03:19:12;14.80;99.90
40960;DHT22;27842;52.272;8.052;2022-10-31T03:22:27;14.80;99.90
40960;DHT22;27842;52.272;8.052;2022-10-31T03:24:37;14.80;99.90
40960;DHT22;27842;52.272;8.052;2022-10-31T03:27:04;14.80;99.90
40960;DHT22;27842;52.272;8.052;2022-10-31T03:29:34;14.70;99.90
40960;DHT22;27842;52.272;8.052;2022-10-31T03:32:07;14.80;99.90
40960;DHT22;27842;52.272;8.052;2022-10-31T03:34:35;14.70;99.90
40960;DHT22;27842;52.272;8.052;2022-10-31T03:37:04;14.70;99.90
40960;DHT22;27842;52.272;8.052;2022-10-31T03:39:33;14.70;99.90
40960;DHT22;27842;52.272;8.052;2022-10-31T03:42:06;14.70;99.90
40960;DHT22;27842;52.272;8.052;2022-10-31T03:44:34;14.70;99.90
40960;DHT22;27842;52.272;8.052;2022-10-31T03:47:02;14.70;99.90
40960;DHT22;27842;52.272;8.052;2022-10-31T03:49:29;14.70;99.90
40960;DHT22;27842;52.272;8.052;2022-10-31T03:57:05;14.70;99.90
40960;DHT22;27842;52.272;8.052;2022-10-31T03:59:40;14.60;99.90
40960;DHT22;27842;52.272;8.052;2022-10-31T04:02:11;14.70;99.90
40960;DHT22;27842;52.272;8.052;2022-10-31T04:04:39;14.60;99.90
40960;DHT22;27842;52.272;8.052;2022-10-31T04:07:06;14.60;99.90
40960;DHT22;27842;52.272;8.052;2022-10-31T04:09:35;14.60;99.90
40960;DHT22;27842;52.272;8.052;2022-10-31T04:12:01;14.60;99.90
40960;DHT22;27842;52.272;8.052;2022-10-31T04:14:31;14.50;99.90
40960;DHT22;27842;52.272;8.052;2022-10-31T04:16:57;14.50;99.90
40960;DHT22;27842;52.272;8.052;2022-10-31T04:19:23;14.50;99.90
40960;DHT22;27842;52.272;8.052;2022-10-31T04:21:49;14.50;99.90
40960;DHT22;27842;52.272;8.052;2022-10-31T04:24:14;14.50;99.90
40960;DHT22;27842;52.272;8.052;2022-10-31T04:26:40;14.50;99.90
40960;DHT22;27842;52.272;8.052;2022-10-31T04:29:05;14.40;99.90
40960;DHT22;27842;52.272;8.052;2022-10-31T04:31:31;14.40;99.90
40960;DHT22;27842;52.272;8.052;2022-10-31T04:33:56;14.40;99.90
40960;DHT22;27842;52.272;8.052;2022-10-31T04:36:22;14.40;99.90
40960;DHT22;27842;52.272;8.052;2022-10-31T04:38:48;14.30;99.90
40960;DHT22;27842;52.272;8.052;2022-10-31T04:41:13;14.30;99.90
40960;DHT22;27842;52.272;8.052;2022-10-31T04:43:39;14.30;99.90
40960;DHT22;27842;52.272;8.052;2022-10-31T04:46:04;14.30;99.90
40960;DHT22;27842;52.272;8.052;2022-10-31T04:48:30;14.30;99.90
40960;DHT22;27842;52.272;8.052;2022-10-31T04:51:00;14.20;99.90
40960;DHT22;27842;52.272;8.052;2022-10-31T04:53:26;14.20;99.90
40960;DHT22;27842;52.272;8.052;2022-10-31T04:55:52;14.20;99.90
40960;DHT22;27842;52.272;8.052;2022-10-31T04:58:17;14.20;99.90
40960;DHT22;27842;52.272;8.052;2022-10-31T05:00:43;14.20;99.90
40960;DHT22;27842;52.272;8.052;2022-10-31T05:03:08;14.10;99.90
40960;DHT22;27842;52.272;8.052;2022-10-31T05:05:34;14.10;99.90
40960;DHT22;27842;52.272;8.052;2022-10-31T05:08:00;14.10;99.90
40960;DHT22;27842;52.272;8.052;2022-10-31T05:10:28;14.00;99.90
40960;DHT22;27842;52.272;8.052;2022-10-31T05:12:56;14.00;99.90
40960;DHT22;27842;52.272;8.052;2022-10-31T05:15:23;14.00;99.90
40960;DHT22;27842;52.272;8.052;2022-10-31T05:17:49;14.00;99.90
40960;DHT22;27842;52.272;8.052;2022-10-31T05:20:17;14.00;99.90
40960;DHT22;27842;52.272;8.052;2022-10-31T05:22:44;13.90;99.90
40960;DHT22;27842;52.272;8.052;2022-10-31T05:25:10;13.90;99.90
40960;DHT22;27842;52.272;8.052;2022-10-31T05:27:42;13.90;99.90
40960;DHT22;27842;52.272;8.052;2022-10-31T05:30:09;13.80;99.90
40960;DHT22;27842;52.272;8.052;2022-10-31T05:32:43;13.80;99.90
40960;DHT22;27842;52.272;8.052;2022-10-31T05:35:21;13.80;99.90
40960;DHT22;27842;52.272;8.052;2022-10-31T05:37:47;13.80;99.90
40960;DHT22;27842;52.272;8.052;2022-10-31T05:40:14;13.70;99.90
40960;DHT22;27842;52.272;8.052;2022-10-31T05:42:41;13.70;99.90
40960;DHT22;27842;52.272;8.052;2022-10-31T05:45:09;13.70;99.90
40960;DHT22;27842;52.272;8.052;2022-10-31T05:47:34;13.60;99.90
40960;DHT22;27842;52.272;8.052;2022-10-31T05:50:00;13.60;99.90
40960;DHT22;27842;52.272;8.052;2022-10-31T05:52:26;13.50;99.90
40960;DHT22;27842;52.272;8.052;2022-10-31T05:54:51;13.50;99.90
40960;DHT22;27842;52.272;8.052;2022-10-31T05:57:17;13.50;99.90
40960;DHT22;27842;52.272;8.052;2022-10-31T05:59:42;13.40;99.90
40960;DHT22;27842;52.272;8.052;2022-10-31T06:02:08;13.40;99.90
40960;DHT22;27842;52.272;8.052;2022-10-31T06:04:33;13.40;99.90
40960;DHT22;27842;52.272;8.052;2022-10-31T06:06:59;13.30;99.90
40960;DHT22;27842;52.272;8.052;2022-10-31T06:09:24;13.30;99.90
40960;DHT22;27842;52.272;8.052;2022-10-31T06:11:50;13.30;99.90
40960;DHT22;27842;52.272;8.052;2022-10-31T06:14:15;13.30;99.90
40960;DHT22;27842;52.272;8.052;2022-10-31T06:16:41;13.30;99.90
40960;DHT22;27842;52.272;8.052;2022-10-31T06:19:07;13.30;99.90
40960;DHT22;27842;52.272;8.052;2022-10-31T06:21:32;13.30;99.90
40960;DHT22;27842;52.272;8.052;2022-10-31T06:23:58;13.30;99.90
40960;DHT22;27842;52.272;8.052;2022-10-31T06:26:23;13.30;99.90
40960;DHT22;27842;52.272;8.052;2022-10-31T06:28:49;13.30;99.90
40960;DHT22;27842;52.272;8.052;2022-10-31T06:31:14;13.30;99.90
40960;DHT22;27842;52.272;8.052;2022-10-31T06:33:43;13.30;99.90
40960;DHT22;27842;52.272;8.052;2022-10-31T06:36:09;13.30;99.90
40960;DHT22;27842;52.272;8.052;2022-10-31T06:38:35;13.30;99.90
40960;DHT22;27842;52.272;8.052;2022-10-31T06:41:05;13.20;99.90
40960;DHT22;27842;52.272;8.052;2022-10-31T06:43:31;13.30;99.90
40960;DHT22;27842;52.272;8.052;2022-10-31T06:46:01;13.20;99.90
40960;DHT22;27842;52.272;8.052;2022-10-31T06:48:27;13.20;99.90
40960;DHT22;27842;52.272;8.052;2022-10-31T06:50:52;13.20;99.90
40960;DHT22;27842;52.272;8.052;2022-10-31T06:53:18;13.20;99.90
40960;DHT22;27842;52.272;8.052;2022-10-31T06:55:43;13.20;99.90
40960;DHT22;27842;52.272;8.052;2022-10-31T06:58:10;13.20;99.90
40960;DHT22;27842;52.272;8.052;2022-10-31T07:00:36;13.20;99.90
40960;DHT22;27842;52.272;8.052;2022-10-31T07:03:04;13.20;99.90
40960;DHT22;27842;52.272;8.052;2022-10-31T07:05:31;13.20;99.90
40960;DHT22;27842;52.272;8.052;2022-10-31T07:07:59;13.10;99.90
40960;DHT22;27842;52.272;8.052;2022-10-31T07:10:26;13.10;99.90
40960;DHT22;27842;52.272;8.052;2022-10-31T07:13:00;13.10;99.90
40960;DHT22;27842;52.272;8.052;2022-10-31T07:15:27;13.00;99.90
40960;DHT22;27842;52.272;8.052;2022-10-31T07:17:53;13.00;99.90
40960;DHT22;27842;52.272;8.052;2022-10-31T07:20:19;13.00;99.90
40960;DHT22;27842;52.272;8.052;2022-10-31T07:22:45;12.90;99.90
40960;DHT22;27842;52.272;8.052;2022-10-31T07:25:11;12.90;99.90
40960;DHT22;27842;52.272;8.052;2022-10-31T07:27:42;12.90;99.90
40960;DHT22;27842;52.272;8.052;2022-10-31T07:30:12;12.90;99.90
40960;DHT22;27842;52.272;8.052;2022-10-31T07:32:39;13.00;99.90
40960;DHT22;27842;52.272;8.052;2022-10-31T07:35:07;13.00;99.90
40960;DHT22;27842;52.272;8.052;2022-10-31T07:37:33;13.00;99.90
40960;DHT22;27842;52.272;8.052;2022-10-31T07:39:59;13.00;99.90
40960;DHT22;27842;52.272;8.052;2022-10-31T07:42:24;13.00;99.90
40960;DHT22;27842;52.272;8.052;2022-10-31T07:44:50;13.00;99.90
40960;DHT22;27842;52.272;8.052;2022-10-31T07:47:15;13.00;99.90
40960;DHT22;27842;52.272;8.052;2022-10-31T07:49:41;13.00;99.90
40960;DHT22;27842;52.272;8.052;2022-10-31T07:52:06;13.00;99.90
40960;DHT22;27842;52.272;8.052;2022-10-31T07:54:32;13.00;99.90
40960;DHT22;27842;52.272;8.052;2022-10-31T07:56:57;12.90;99.90
40960;DHT22;27842;52.272;8.052;2022-10-31T07:59:23;12.90;99.90
40960;DHT22;27842;52.272;8.052;2022-10-31T08:01:48;12.90;99.90
40960;DHT22;27842;52.272;8.052;2022-10-31T08:04:14;12.90;99.90
40960;DHT22;27842;52.272;8.052;2022-10-31T08:06:40;13.00;99.90
40960;DHT22;27842;52.272;8.052;2022-10-31T08:09:05;13.00;99.90
40960;DHT22;27842;52.272;8.052;2022-10-31T08:11:31;13.10;99.90
40960;DHT22;27842;52.272;8.052;2022-10-31T08:13:56;13.10;99.90
40960;DHT22;27842;52.272;8.052;2022-10-31T08:16:22;13.10;99.90
40960;DHT22;27842;52.272;8.052;2022-10-31T08:18:48;13.10;99.90
40960;DHT22;27842;52.272;8.052;2022-10-31T08:21:13;13.20;99.90
40960;DHT22;27842;52.272;8.052;2022-10-31T08:23:39;13.20;99.90
40960;DHT22;27842;52.272;8.052;2022-10-31T08:26:04;13.20;99.90
40960;DHT22;27842;52.272;8.052;2022-10-31T08:28:31;13.20;99.90
40960;DHT22;27842;52.272;8.052;2022-10-31T08:30:58;13.20;99.90
40960;DHT22;27842;52.272;8.052;2022-10-31T08:33:23;13.20;99.90
40960;DHT22;27842;52.272;8.052;2022-10-31T08:35:49;13.20;99.90
40960;DHT22;27842;52.272;8.052;2022-10-31T08:38:15;13.30;99.90
40960;DHT22;27842;52.272;8.052;2022-10-31T08:40:41;13.30;99.90
40960;DHT22;27842;52.272;8.052;2022-10-31T08:43:14;13.40;99.90
40960;DHT22;27842;52.272;8.052;2022-10-31T08:45:41;13.40;99.90
40960;DHT22;27842;52.272;8.052;2022-10-31T08:48:10;13.40;99.90
40960;DHT22;27842;52.272;8.052;2022-10-31T08:50:37;13.50;99.90
40960;DHT22;27842;52.272;8.052;2022-10-31T08:53:05;13.50;99.90
40960;DHT22;27842;52.272;8.052;2022-10-31T08:55:34;13.50;99.90
40960;DHT22;27842;52.272;8.052;2022-10-31T08:58:05;13.50;99.90
40960;DHT22;27842;52.272;8.052;2022-10-31T09:00:32;13.50;99.90
40960;DHT22;27842;52.272;8.052;2022-10-31T09:03:00;13.60;99.90
40960;DHT22;27842;52.272;8.052;2022-10-31T09:05:27;13.60;99.90
40960;DHT22;27842;52.272;8.052;2022-10-31T09:07:56;13.60;99.90
40960;DHT22;27842;52.272;8.052;2022-10-31T09:10:23;13.60;99.90
40960;DHT22;27842;52.272;8.052;2022-10-31T09:13:03;13.70;99.90
40960;DHT22;27842;52.272;8.052;2022-10-31T09:15:32;13.70;99.90
40960;DHT22;27842;52.272;8.052;2022-10-31T09:17:58;13.70;99.90
40960;DHT22;27842;52.272;8.052;2022-10-31T09:20:24;13.70;99.90
40960;DHT22;27842;52.272;8.052;2022-10-31T09:22:57;13.70;99.90
40960;DHT22;27842;52.272;8.052;2022-10-31T09:25:23;13.80;99.90
40960;DHT22;27842;52.272;8.052;2022-10-31T09:27:49;13.80;99.90
40960;DHT22;27842;52.272;8.052;2022-10-31T09:30:14;13.90;99.90
40960;DHT22;27842;52.272;8.052;2022-10-31T09:32:40;13.90;99.90
40960;DHT22;27842;52.272;8.052;2022-10-31T09:35:06;14.00;99.90
40960;DHT22;27842;52.272;8.052;2022-10-31T09:37:32;14.00;99.90
40960;DHT22;27842;52.272;8.052;2022-10-31T09:39:57;14.00;99.90
40960;DHT22;27842;52.272;8.052;2022-10-31T09:42:30;14.10;99.90
40960;DHT22;27842;52.272;8.052;2022-10-31T09:45:15;14.10;99.90
40960;DHT22;27842;52.272;8.052;2022-10-31T09:50:42;14.20;99.90
40960;DHT22;27842;52.272;8.052;2022-10-31T09:53:24;14.40;99.90
40960;DHT22;27842;52.272;8.052;2022-10-31T09:55:52;14.40;99.90
40960;DHT22;27842;52.272;8.052;2022-10-31T09:58:23;14.50;99.90
40960;DHT22;27842;52.272;8.052;2022-10-31T10:00:50;14.50;99.90
40960;DHT22;27842;52.272;8.052;2022-10-31T10:03:34;14.50;99.90
40960;DHT22;27842;52.272;8.052;2022-10-31T10:06:15;14.60;99.90
40960;DHT22;27842;52.272;8.052;2022-10-31T10:08:41;14.70;99.90
40960;DHT22;27842;52.272;8.052;2022-10-31T10:14:01;14.80;99.90
40960;DHT22;27842;52.272;8.052;2022-10-31T10:16:41;14.90;99.90
40960;DHT22;27842;52.272;8.052;2022-10-31T10:19:19;14.90;99.90
40960;DHT22;27842;52.272;8.052;2022-10-31T10:27:16;15.20;99.90
40960;DHT22;27842;52.272;8.052;2022-10-31T10:32:26;15.30;99.90
40960;DHT22;27842;52.272;8.052;2022-10-31T10:35:07;15.40;99.90
40960;DHT22;27842;52.272;8.052;2022-10-31T10:37:39;15.50;99.90
40960;DHT22;27842;52.272;8.052;2022-10-31T10:42:35;15.60;99.90
40960;DHT22;27842;52.272;8.052;2022-10-31T10:45:20;15.60;99.90
40960;DHT22;27842;52.272;8.052;2022-10-31T10:48:15;15.70;99.90
40960;DHT22;27842;52.272;8.052;2022-10-31T10:50:51;15.70;99.90
40960;DHT22;27842;52.272;8.052;2022-10-31T10:53:34;15.80;99.90
40960;DHT22;27842;52.272;8.052;2022-10-31T10:56:35;15.80;99.90
40960;DHT22;27842;52.272;8.052;2022-10-31T10:59:03;15.90;99.90
40960;DHT22;27842;52.272;8.052;2022-10-31T11:01:28;15.90;99.90
40960;DHT22;27842;52.272;8.052;2022-10-31T11:03:54;15.90;99.90
40960;DHT22;27842;52.272;8.052;2022-10-31T11:06:22;16.00;99.90
40960;DHT22;27842;52.272;8.052;2022-10-31T11:08:51;16.00;99.90
40960;DHT22;27842;52.272;8.052;2022-10-31T11:13:46;16.10;99.90
40960;DHT22;27842;52.272;8.052;2022-10-31T11:16:44;16.10;99.90
40960;DHT22;27842;52.272;8.052;2022-10-31T11:19:19;16.10;99.90
40960;DHT22;27842;52.272;8.052;2022-10-31T11:21:46;16.10;99.90
40960;DHT22;27842;52.272;8.052;2022-10-31T11:24:18;16.20;99.90
40960;DHT22;27842;52.272;8.052;2022-10-31T11:26:47;16.20;99.90
40960;DHT22;27842;52.272;8.052;2022-10-31T11:29:24;16.20;99.90
40960;DHT22;27842;52.272;8.052;2022-10-31T11:31:53;16.20;99.90
40960;DHT22;27842;52.272;8.052;2022-10-31T11:34:26;16.30;99.90
40960;DHT22;27842;52.272;8.052;2022-10-31T11:36:53;16.30;99.90
40960;DHT22;27842;52.272;8.052;2022-10-31T11:39:24;16.30;99.90
40960;DHT22;27842;52.272;8.052;2022-10-31T11:41:52;16.40;99.90
40960;DHT22;27842;52.272;8.052;2022-10-31T11:44:25;16.40;99.90
40960;DHT22;27842;52.272;8.052;2022-10-31T11:46:56;16.40;99.90
40960;DHT22;27842;52.272;8.052;2022-10-31T11:49:45;16.40;99.90
40960;DHT22;27842;52.272;8.052;2022-10-31T11:57:29;16.40;99.90
40960;DHT22;27842;52.272;8.052;2022-10-31T12:00:00;16.40;99.90
40960;DHT22;27842;52.272;8.052;2022-10-31T12:02:26;16.50;99.90
40960;DHT22;27842;52.272;8.052;2022-10-31T12:05:07;16.50;99.90
40960;DHT22;27842;52.272;8.052;2022-10-31T12:07:33;16.50;99.90
40960;DHT22;27842;52.272;8.052;2022-10-31T12:09:59;16.50;99.90
40960;DHT22;27842;52.272;8.052;2022-10-31T12:17:42;16.60;99.90
40960;DHT22;27842;52.272;8.052;2022-10-31T12:23:11;16.70;99.90
40960;DHT22;27842;52.272;8.052;2022-10-31T12:28:35;16.70;99.90
40960;DHT22;27842;52.272;8.052;2022-10-31T12:31:28;16.80;99.90
40960;DHT22;27842;52.272;8.052;2022-10-31T12:39:25;16.80;99.90
40960;DHT22;27842;52.272;8.052;2022-10-31T12:45:01;16.90;99.90
40960;DHT22;27842;52.272;8.052;2022-10-31T12:50:28;16.90;99.90
40960;DHT22;27842;52.272;8.052;2022-10-31T12:59:07;16.90;99.90
40960;DHT22;27842;52.272;8.052;2022-10-31T13:01:56;16.90;99.90
40960;DHT22;27842;52.272;8.052;2022-10-31T13:07:34;16.80;99.90
40960;DHT22;27842;52.272;8.052;2022-10-31T13:12:40;16.90;99.90
40960;DHT22;27842;52.272;8.052;2022-10-31T13:15:27;16.80;99.90
40960;DHT22;27842;52.272;8.052;2022-10-31T13:18:00;16.80;99.90
40960;DHT22;27842;52.272;8.052;2022-10-31T13:20:30;16.80;99.90
40960;DHT22;27842;52.272;8.052;2022-10-31T13:23:05;16.70;99.90
40960;DHT22;27842;52.272;8.052;2022-10-31T13:25:38;16.70;99.90
40960;DHT22;27842;52.272;8.052;2022-10-31T13:28:11;16.80;99.90
40960;DHT22;27842;52.272;8.052;2022-10-31T13:30:40;16.70;99.90
40960;DHT22;27842;52.272;8.052;2022-10-31T13:38:36;16.70;99.90
40960;DHT22;27842;52.272;8.052;2022-10-31T13:41:57;16.70;99.90
40960;DHT22;27842;52.272;8.052;2022-10-31T13:44:27;16.70;99.90
40960;DHT22;27842;52.272;8.052;2022-10-31T13:46:55;16.60;99.90
40960;DHT22;27842;52.272;8.052;2022-10-31T13:49:35;16.60;99.90
40960;DHT22;27842;52.272;8.052;2022-10-31T13:52:25;16.60;99.90
40960;DHT22;27842;52.272;8.052;2022-10-31T13:54:52;16.60;99.90
40960;DHT22;27842;52.272;8.052;2022-10-31T13:57:27;16.60;99.90
40960;DHT22;27842;52.272;8.052;2022-10-31T13:59:58;16.60;99.90
40960;DHT22;27842;52.272;8.052;2022-10-31T14:02:35;16.60;99.90
40960;DHT22;27842;52.272;8.052;2022-10-31T14:05:26;16.60;99.90
40960;DHT22;27842;52.272;8.052;2022-10-31T14:07:53;16.60;99.90
40960;DHT22;27842;52.272;8.052;2022-10-31T14:10:38;16.60;99.90
40960;DHT22;27842;52.272;8.052;2022-10-31T14:13:22;16.60;99.90
40960;DHT22;27842;52.272;8.052;2022-10-31T14:15:57;16.60;99.90
40960;DHT22;27842;52.272;8.052;2022-10-31T14:18:36;16.60;99.90
40960;DHT22;27842;52.272;8.052;2022-10-31T14:23:49;16.60;99.90
40960;DHT22;27842;52.272;8.052;2022-10-31T14:26:35;16.60;99.90
40960;DHT22;27842;52.272;8.052;2022-10-31T14:31:51;16.60;99.90
40960;DHT22;27842;52.272;8.052;2022-10-31T14:34:18;16.60;99.90
40960;DHT22;27842;52.272;8.052;2022-10-31T14:45:05;16.50;99.90
40960;DHT22;27842;52.272;8.052;2022-10-31T14:47:52;16.60;99.90
40960;DHT22;27842;52.272;8.052;2022-10-31T14:51:07;16.60;99.90
40960;DHT22;27842;52.272;8.052;2022-10-31T14:53:29;16.50;99.90
40960;DHT22;27842;52.272;8.052;2022-10-31T14:55:56;16.50;99.90
40960;DHT22;27842;52.272;8.052;2022-10-31T14:58:27;16.50;99.90
40960;DHT22;27842;52.272;8.052;2022-10-31T15:00:56;16.50;99.90
40960;DHT22;27842;52.272;8.052;2022-10-31T15:03:27;16.50;99.90
40960;DHT22;27842;52.272;8.052;2022-10-31T15:05:56;16.50;99.90
40960;DHT22;27842;52.272;8.052;2022-10-31T15:10:54;16.50;99.90
40960;DHT22;27842;52.272;8.052;2022-10-31T15:13:21;16.50;99.90
40960;DHT22;27842;52.272;8.052;2022-10-31T15:15:49;16.50;99.90
40960;DHT22;27842;52.272;8.052;2022-10-31T15:18:17;16.50;99.90
40960;DHT22;27842;52.272;8.052;2022-10-31T15:20:44;16.40;99.90
40960;DHT22;27842;52.272;8.052;2022-10-31T15:23:21;16.40;99.90
40960;DHT22;27842;52.272;8.052;2022-10-31T15:25:48;16.50;99.90
40960;DHT22;27842;52.272;8.052;2022-10-31T15:28:16;16.40;99.90
40960;DHT22;27842;52.272;8.052;2022-10-31T15:30:55;16.50;99.90
40960;DHT22;27842;52.272;8.052;2022-10-31T15:33:29;16.40;99.90
40960;DHT22;27842;52.272;8.052;2022-10-31T15:35:57;16.40;99.90
40960;DHT22;27842;52.272;8.052;2022-10-31T15:38:23;16.40;99.90
40960;DHT22;27842;52.272;8.052;2022-10-31T15:41:01;16.40;99.90
40960;DHT22;27842;52.272;8.052;2022-10-31T15:43:34;16.40;99.90
40960;DHT22;27842;52.272;8.052;2022-10-31T15:46:01;16.40;99.90
40960;DHT22;27842;52.272;8.052;2022-10-31T15:48:27;16.40;99.90
40960;DHT22;27842;52.272;8.052;2022-10-31T15:50:57;16.40;99.90
40960;DHT22;27842;52.272;8.052;2022-10-31T15:53:36;16.40;99.90
40960;DHT22;27842;52.272;8.052;2022-10-31T15:56:06;16.40;99.90
40960;DHT22;27842;52.272;8.052;2022-10-31T15:58:33;16.40;99.90
40960;DHT22;27842;52.272;8.052;2022-10-31T16:01:06;16.30;99.90
40960;DHT22;27842;52.272;8.052;2022-10-31T16:03:44;16.30;99.90
40960;DHT22;27842;52.272;8.052;2022-10-31T16:06:20;16.30;99.90
40960;DHT22;27842;52.272;8.052;2022-10-31T16:08:48;16.30;99.90
40960;DHT22;27842;52.272;8.052;2022-10-31T16:11:38;16.30;99.90
40960;DHT22;27842;52.272;8.052;2022-10-31T16:16:42;16.30;99.90
40960;DHT22;27842;52.272;8.052;2022-10-31T16:19:16;16.30;99.90
40960;DHT22;27842;52.272;8.052;2022-10-31T16:21:43;16.30;99.90
40960;DHT22;27842;52.272;8.052;2022-10-31T16:24:18;16.20;99.90
40960;DHT22;27842;52.272;8.052;2022-10-31T16:26:50;16.20;99.90
40960;DHT22;27842;52.272;8.052;2022-10-31T16:31:58;16.20;99.90
40960;DHT22;27842;52.272;8.052;2022-10-31T16:34:24;16.20;99.90
40960;DHT22;27842;52.272;8.052;2022-10-31T16:36:50;16.20;99.90
40960;DHT22;27842;52.272;8.052;2022-10-31T16:39:16;16.20;99.90
40960;DHT22;27842;52.272;8.052;2022-10-31T16:41:45;16.20;99.90
40960;DHT22;27842;52.272;8.052;2022-10-31T16:44:24;16.10;99.90
40960;DHT22;27842;52.272;8.052;2022-10-31T16:49:34;16.10;99.90
40960;DHT22;27842;52.272;8.052;2022-10-31T16:52:00;16.10;99.90
40960;DHT22;27842;52.272;8.052;2022-10-31T16:54:25;16.10;99.90
40960;DHT22;27842;52.272;8.052;2022-10-31T16:56:51;16.10;99.90
40960;DHT22;27842;52.272;8.052;2022-10-31T16:59:16;16.10;99.90
40960;DHT22;27842;52.272;8.052;2022-10-31T17:01:44;16.10;99.90
40960;DHT22;27842;52.272;8.052;2022-10-31T17:04:14;16.10;99.90
40960;DHT22;27842;52.272;8.052;2022-10-31T17:06:40;16.00;99.90
40960;DHT22;27842;52.272;8.052;2022-10-31T17:09:06;16.00;99.90
40960;DHT22;27842;52.272;8.052;2022-10-31T17:11:32;16.00;99.90
40960;DHT22;27842;52.272;8.052;2022-10-31T17:13:58;16.00;99.90
40960;DHT22;27842;52.272;8.052;2022-10-31T17:16:23;16.00;99.90
40960;DHT22;27842;52.272;8.052;2022-10-31T17:18:49;16.00;99.90
40960;DHT22;27842;52.272;8.052;2022-10-31T17:21:21;16.00;99.90
40960;DHT22;27842;52.272;8.052;2022-10-31T17:23:51;16.00;99.90
40960;DHT22;27842;52.272;8.052;2022-10-31T17:26:17;16.00;99.90
40960;DHT22;27842;52.272;8.052;2022-10-31T17:28:43;15.90;99.90
40960;DHT22;27842;52.272;8.052;2022-10-31T17:31:35;15.90;99.90
40960;DHT22;27842;52.272;8.052;2022-10-31T17:34:01;15.90;99.90
40960;DHT22;27842;52.272;8.052;2022-10-31T17:36:30;15.90;99.90
40960;DHT22;27842;52.272;8.052;2022-10-31T17:38:55;15.90;99.90
40960;DHT22;27842;52.272;8.052;2022-10-31T17:41:21;15.90;99.90
40960;DHT22;27842;52.272;8.052;2022-10-31T17:43:47;15.90;99.90
40960;DHT22;27842;52.272;8.052;2022-10-31T17:46:12;15.90;99.90
40960;DHT22;27842;52.272;8.052;2022-10-31T17:48:38;15.90;99.90
40960;DHT22;27842;52.272;8.052;2022-10-31T17:51:05;15.80;99.90